Seneca, Wisconsin
Current Conditions -  °F | °C
As of 8:53 PM on Wednesday 26 Nov 2014 (Local Time) from KOVS Reporting Station
Haze Haze  
Wind Chill: 20°   Ceiling: 7000
Heat Index: 20°   Visibility: 4mi
Dew Point: 17°   Wind: 0mph
Humidity: 89%   Direction: NA
Pressure: 30.25"   Gusts: NA
Location:  43.27°N, 90.96°W
Report Text: KOVS 270253Z AUTO 00000KT 4SM BR OVC070 M07/M08 A3025 RMK AO2 SLP255 T10671083 51009
Loading
Personal Weather Stations






























Interactive Weather Map New forecast layout! Learn more

10-Day Weather Forecast

Advertisements
Track Severe Weather on mobile